sensor_id;sensor_type;location;lat;lon;timestamp;pressure;altitude;pressure_sealevel;temperature;humidity
58373;BME280;44177;43.356;27.672;2023-04-30T00:01:42;97820.50;;;6.99;61.79
58373;BME280;44177;43.356;27.672;2023-04-30T00:04:07;97826.88;;;7.03;61.66
58373;BME280;44177;43.356;27.672;2023-04-30T00:06:33;97821.78;;;7.01;61.81
58373;BME280;44177;43.356;27.672;2023-04-30T00:08:58;97813.31;;;7.03;61.72
58373;BME280;44177;43.356;27.672;2023-04-30T00:11:23;97801.22;;;7.00;61.48
58373;BME280;44177;43.356;27.672;2023-04-30T00:13:50;97821.56;;;7.06;61.78
58373;BME280;44177;43.356;27.672;2023-04-30T00:16:16;97818.22;;;7.09;61.94
58373;BME280;44177;43.356;27.672;2023-04-30T00:18:42;97816.03;;;7.03;62.02
58373;BME280;44177;43.356;27.672;2023-04-30T00:21:07;97821.72;;;7.10;62.04
58373;BME280;44177;43.356;27.672;2023-04-30T00:23:33;97819.66;;;7.07;62.16
58373;BME280;44177;43.356;27.672;2023-04-30T00:25:58;97819.22;;;7.05;62.36
58373;BME280;44177;43.356;27.672;2023-04-30T00:28:24;97817.16;;;7.02;62.16
58373;BME280;44177;43.356;27.672;2023-04-30T00:30:49;97801.09;;;6.97;62.30
58373;BME280;44177;43.356;27.672;2023-04-30T00:33:15;97817.63;;;7.04;62.17
58373;BME280;44177;43.356;27.672;2023-04-30T00:35:41;97816.16;;;7.06;62.24
58373;BME280;44177;43.356;27.672;2023-04-30T00:38:06;97814.69;;;7.09;62.05
58373;BME280;44177;43.356;27.672;2023-04-30T00:40:34;97800.22;;;7.05;61.85
58373;BME280;44177;43.356;27.672;2023-04-30T00:43:00;97807.09;;;7.02;62.08
58373;BME280;44177;43.356;27.672;2023-04-30T00:45:26;97816.94;;;7.07;62.48
58373;BME280;44177;43.356;27.672;2023-04-30T00:47:51;97806.50;;;6.97;62.25
58373;BME280;44177;43.356;27.672;2023-04-30T00:50:17;97811.94;;;6.97;62.25
58373;BME280;44177;43.356;27.672;2023-04-30T00:52:42;97806.75;;;7.04;62.09
58373;BME280;44177;43.356;27.672;2023-04-30T00:55:10;97814.44;;;7.02;62.26
58373;BME280;44177;43.356;27.672;2023-04-30T00:57:37;97822.91;;;7.00;62.56
58373;BME280;44177;43.356;27.672;2023-04-30T01:00:03;97814.84;;;6.91;62.58
58373;BME280;44177;43.356;27.672;2023-04-30T01:02:30;97816.16;;;6.85;62.78
58373;BME280;44177;43.356;27.672;2023-04-30T01:04:56;97812.31;;;6.86;62.89
58373;BME280;44177;43.356;27.672;2023-04-30T01:07:23;97806.00;;;6.82;62.85
58373;BME280;44177;43.356;27.672;2023-04-30T01:09:49;97801.81;;;6.85;63.04
58373;BME280;44177;43.356;27.672;2023-04-30T01:20:23;97814.91;;;6.61;64.09
58373;BME280;44177;43.356;27.672;2023-04-30T01:28:34;97809.47;;;6.61;64.85
58373;BME280;44177;43.356;27.672;2023-04-30T01:31:00;97813.16;;;6.57;64.90
58373;BME280;44177;43.356;27.672;2023-04-30T01:33:25;97811.66;;;6.68;64.44
58373;BME280;44177;43.356;27.672;2023-04-30T01:41:19;97813.91;;;6.66;64.36
58373;BME280;44177;43.356;27.672;2023-04-30T01:46:39;97805.31;;;6.64;64.02
58373;BME280;44177;43.356;27.672;2023-04-30T01:52:22;97801.22;;;6.58;64.49
58373;BME280;44177;43.356;27.672;2023-04-30T01:55:04;97808.28;;;6.50;64.53
58373;BME280;44177;43.356;27.672;2023-04-30T01:57:37;97787.31;;;6.38;64.57
58373;BME280;44177;43.356;27.672;2023-04-30T02:00:03;97802.41;;;6.48;64.72
58373;BME280;44177;43.356;27.672;2023-04-30T02:02:30;97801.44;;;6.44;64.86
58373;BME280;44177;43.356;27.672;2023-04-30T02:04:55;97803.72;;;6.42;64.93
58373;BME280;44177;43.356;27.672;2023-04-30T02:07:40;97801.19;;;6.37;65.21
58373;BME280;44177;43.356;27.672;2023-04-30T02:10:07;97811.50;;;6.43;65.15
58373;BME280;44177;43.356;27.672;2023-04-30T02:12:33;97807.13;;;6.51;64.95
58373;BME280;44177;43.356;27.672;2023-04-30T02:14:58;97798.38;;;6.54;64.62
58373;BME280;44177;43.356;27.672;2023-04-30T02:17:24;97789.31;;;6.50;64.86
58373;BME280;44177;43.356;27.672;2023-04-30T02:19:49;97790.63;;;6.44;65.24
58373;BME280;44177;43.356;27.672;2023-04-30T02:22:15;97788.47;;;6.28;65.42
58373;BME280;44177;43.356;27.672;2023-04-30T02:24:40;97791.03;;;6.34;65.39
58373;BME280;44177;43.356;27.672;2023-04-30T02:27:05;97778.19;;;6.22;65.54
58373;BME280;44177;43.356;27.672;2023-04-30T02:29:31;97785.59;;;6.34;65.58
58373;BME280;44177;43.356;27.672;2023-04-30T02:32:00;97782.56;;;6.35;65.66
58373;BME280;44177;43.356;27.672;2023-04-30T02:34:26;97787.19;;;6.35;65.44
58373;BME280;44177;43.356;27.672;2023-04-30T02:36:51;97799.16;;;6.34;65.89
58373;BME280;44177;43.356;27.672;2023-04-30T02:39:17;97775.06;;;6.11;66.04
58373;BME280;44177;43.356;27.672;2023-04-30T02:41:42;97791.38;;;6.23;66.17
58373;BME280;44177;43.356;27.672;2023-04-30T02:44:08;97790.75;;;6.26;66.22
58373;BME280;44177;43.356;27.672;2023-04-30T02:46:33;97790.06;;;6.29;66.02
58373;BME280;44177;43.356;27.672;2023-04-30T02:48:58;97779.22;;;6.29;66.18
58373;BME280;44177;43.356;27.672;2023-04-30T02:51:24;97779.22;;;6.29;66.27
58373;BME280;44177;43.356;27.672;2023-04-30T02:53:49;97783.47;;;6.39;65.94
58373;BME280;44177;43.356;27.672;2023-04-30T02:56:15;97786.38;;;6.34;65.69
58373;BME280;44177;43.356;27.672;2023-04-30T02:58:41;97788.31;;;6.34;65.98
58373;BME280;44177;43.356;27.672;2023-04-30T03:01:06;97785.59;;;6.34;66.23
58373;BME280;44177;43.356;27.672;2023-04-30T03:03:32;97776.53;;;6.29;66.25
58373;BME280;44177;43.356;27.672;2023-04-30T03:05:58;97771.16;;;6.21;66.45
58373;BME280;44177;43.356;27.672;2023-04-30T03:08:27;97782.47;;;6.23;66.69
58373;BME280;44177;43.356;27.672;2023-04-30T03:10:52;97765.69;;;6.29;66.49
58373;BME280;44177;43.356;27.672;2023-04-30T03:13:18;97793.53;;;6.39;66.32
58373;BME280;44177;43.356;27.672;2023-04-30T03:15:43;97786.25;;;6.30;66.35
58373;BME280;44177;43.356;27.672;2023-04-30T03:18:09;97785.19;;;6.44;65.98
58373;BME280;44177;43.356;27.672;2023-04-30T03:20:35;97792.34;;;6.48;65.91
58373;BME280;44177;43.356;27.672;2023-04-30T03:23:01;97789.84;;;6.43;66.38
58373;BME280;44177;43.356;27.672;2023-04-30T03:25:26;97787.47;;;6.42;66.19
58373;BME280;44177;43.356;27.672;2023-04-30T03:27:51;97803.19;;;6.48;66.14
58373;BME280;44177;43.356;27.672;2023-04-30T03:30:17;97797.31;;;6.46;66.07
58373;BME280;44177;43.356;27.672;2023-04-30T03:32:42;97800.16;;;6.50;66.13
58373;BME280;44177;43.356;27.672;2023-04-30T03:35:08;97810.47;;;6.57;65.93
58373;BME280;44177;43.356;27.672;2023-04-30T03:37:34;97806.28;;;6.59;65.88
58373;BME280;44177;43.356;27.672;2023-04-30T03:39:59;97807.09;;;6.60;65.71
58373;BME280;44177;43.356;27.672;2023-04-30T03:42:25;97807.44;;;6.58;66.01
58373;BME280;44177;43.356;27.672;2023-04-30T03:44:50;97817.13;;;6.59;66.13
58373;BME280;44177;43.356;27.672;2023-04-30T03:47:16;97803.88;;;6.67;65.93
58373;BME280;44177;43.356;27.672;2023-04-30T03:49:41;97812.28;;;6.74;65.89
58373;BME280;44177;43.356;27.672;2023-04-30T03:52:07;97813.78;;;6.84;65.55
58373;BME280;44177;43.356;27.672;2023-04-30T03:54:32;97799.09;;;6.85;65.83
58373;BME280;44177;43.356;27.672;2023-04-30T03:56:58;97802.59;;;6.85;65.51
58373;BME280;44177;43.356;27.672;2023-04-30T03:59:24;97814.25;;;6.86;65.81
58373;BME280;44177;43.356;27.672;2023-04-30T04:01:50;97815.63;;;6.92;65.98
58373;BME280;44177;43.356;27.672;2023-04-30T04:04:16;97827.34;;;7.05;65.58
58373;BME280;44177;43.356;27.672;2023-04-30T04:06:42;97816.69;;;7.00;65.81
58373;BME280;44177;43.356;27.672;2023-04-30T04:09:07;97827.00;;;7.06;66.13
58373;BME280;44177;43.356;27.672;2023-04-30T04:11:33;97825.00;;;7.16;66.22
58373;BME280;44177;43.356;27.672;2023-04-30T04:13:59;97828.97;;;7.18;65.74
58373;BME280;44177;43.356;27.672;2023-04-30T04:16:25;97823.16;;;7.29;65.82
58373;BME280;44177;43.356;27.672;2023-04-30T04:18:51;97830.78;;;7.48;65.97
58373;BME280;44177;43.356;27.672;2023-04-30T04:21:17;97821.88;;;7.59;66.01
58373;BME280;44177;43.356;27.672;2023-04-30T04:23:42;97831.38;;;7.66;65.78
58373;BME280;44177;43.356;27.672;2023-04-30T04:26:08;97819.19;;;7.72;65.75
58373;BME280;44177;43.356;27.672;2023-04-30T04:28:35;97828.97;;;7.98;65.45
58373;BME280;44177;43.356;27.672;2023-04-30T04:31:01;97831.66;;;7.98;65.00
58373;BME280;44177;43.356;27.672;2023-04-30T04:33:27;97815.38;;;7.98;65.32
58373;BME280;44177;43.356;27.672;2023-04-30T04:35:53;97825.44;;;8.22;64.81
58373;BME280;44177;43.356;27.672;2023-04-30T04:38:19;97824.53;;;8.30;65.05
58373;BME280;44177;43.356;27.672;2023-04-30T04:40:51;97822.16;;;8.41;64.51
58373;BME280;44177;43.356;27.672;2023-04-30T04:43:17;97828.97;;;8.60;64.31
58373;BME280;44177;43.356;27.672;2023-04-30T04:45:43;97802.03;;;8.55;63.55
58373;BME280;44177;43.356;27.672;2023-04-30T04:48:08;97822.38;;;8.73;63.84
58373;BME280;44177;43.356;27.672;2023-04-30T04:50:34;97819.19;;;8.83;63.85
58373;BME280;44177;43.356;27.672;2023-04-30T04:53:00;97818.50;;;8.87;63.56
58373;BME280;44177;43.356;27.672;2023-04-30T04:55:25;97823.91;;;8.99;62.97
58373;BME280;44177;43.356;27.672;2023-04-30T04:57:51;97821.09;;;9.24;62.86
58373;BME280;44177;43.356;27.672;2023-04-30T05:00:16;97827.84;;;9.30;61.87
58373;BME280;44177;43.356;27.672;2023-04-30T05:02:43;97816.75;;;9.35;60.91
58373;BME280;44177;43.356;27.672;2023-04-30T05:05:08;97828.25;;;9.44;60.63
58373;BME280;44177;43.356;27.672;2023-04-30T05:07:35;97819.31;;;9.60;60.95
58373;BME280;44177;43.356;27.672;2023-04-30T05:10:00;97825.84;;;9.71;60.66
58373;BME280;44177;43.356;27.672;2023-04-30T05:12:26;97831.66;;;9.86;60.12
58373;BME280;44177;43.356;27.672;2023-04-30T05:14:51;97832.91;;;10.04;59.19
58373;BME280;44177;43.356;27.672;2023-04-30T05:17:17;97819.97;;;10.01;58.68
58373;BME280;44177;43.356;27.672;2023-04-30T05:19:42;97836.41;;;10.21;59.09
58373;BME280;44177;43.356;27.672;2023-04-30T05:22:07;97835.59;;;10.36;58.21
58373;BME280;44177;43.356;27.672;2023-04-30T05:24:33;97839.06;;;10.49;57.78
58373;BME280;44177;43.356;27.672;2023-04-30T05:26:59;97828.09;;;10.65;57.21
58373;BME280;44177;43.356;27.672;2023-04-30T05:29:26;97837.41;;;10.80;56.89
58373;BME280;44177;43.356;27.672;2023-04-30T05:31:52;97830.88;;;10.85;53.76
58373;BME280;44177;43.356;27.672;2023-04-30T05:34:18;97842.31;;;11.10;53.85
58373;BME280;44177;43.356;27.672;2023-04-30T05:36:44;97842.22;;;11.26;53.29
58373;BME280;44177;43.356;27.672;2023-04-30T05:39:09;97829.59;;;11.37;52.57
58373;BME280;44177;43.356;27.672;2023-04-30T05:41:35;97839.94;;;11.48;51.93
58373;BME280;44177;43.356;27.672;2023-04-30T05:44:00;97836.19;;;11.56;51.22
58373;BME280;44177;43.356;27.672;2023-04-30T05:46:27;97842.44;;;11.80;51.96
58373;BME280;44177;43.356;27.672;2023-04-30T05:48:52;97839.09;;;12.10;51.62
58373;BME280;44177;43.356;27.672;2023-04-30T05:51:17;97831.06;;;12.21;50.16
58373;BME280;44177;43.356;27.672;2023-04-30T05:53:43;97842.28;;;12.39;48.60
58373;BME280;44177;43.356;27.672;2023-04-30T05:56:08;97833.84;;;12.51;47.18
58373;BME280;44177;43.356;27.672;2023-04-30T05:58:34;97835.44;;;12.79;47.93
58373;BME280;44177;43.356;27.672;2023-04-30T06:00:59;97842.31;;;12.96;46.48
58373;BME280;44177;43.356;27.672;2023-04-30T06:03:25;97841.16;;;13.27;46.96
58373;BME280;44177;43.356;27.672;2023-04-30T06:05:51;97836.69;;;13.46;45.08
58373;BME280;44177;43.356;27.672;2023-04-30T06:08:16;97831.31;;;13.53;45.03
58373;BME280;44177;43.356;27.672;2023-04-30T06:10:42;97844.13;;;13.83;44.61
58373;BME280;44177;43.356;27.672;2023-04-30T06:13:07;97848.19;;;14.00;43.66
58373;BME280;44177;43.356;27.672;2023-04-30T06:15:33;97844.16;;;14.32;43.58
58373;BME280;44177;43.356;27.672;2023-04-30T06:17:58;97838.47;;;14.59;42.22
58373;BME280;44177;43.356;27.672;2023-04-30T06:20:24;97844.97;;;14.92;41.26
58373;BME280;44177;43.356;27.672;2023-04-30T06:22:51;97827.75;;;15.02;40.70
58373;BME280;44177;43.356;27.672;2023-04-30T06:25:16;97840.88;;;15.41;40.45
58373;BME280;44177;43.356;27.672;2023-04-30T06:27:42;97835.03;;;15.61;39.64
58373;BME280;44177;43.356;27.672;2023-04-30T06:30:08;97851.56;;;15.75;41.08
58373;BME280;44177;43.356;27.672;2023-04-30T06:32:33;97850.84;;;16.00;38.70
58373;BME280;44177;43.356;27.672;2023-04-30T06:34:59;97845.34;;;16.22;40.25
58373;BME280;44177;43.356;27.672;2023-04-30T06:37:24;97841.44;;;16.37;38.79
58373;BME280;44177;43.356;27.672;2023-04-30T06:39:50;97835.91;;;16.59;37.28
58373;BME280;44177;43.356;27.672;2023-04-30T06:42:16;97859.47;;;16.82;37.30
58373;BME280;44177;43.356;27.672;2023-04-30T06:44:41;97848.03;;;16.87;35.80
58373;BME280;44177;43.356;27.672;2023-04-30T06:47:07;97848.41;;;17.07;34.67
58373;BME280;44177;43.356;27.672;2023-04-30T06:49:32;97842.41;;;17.34;34.90
58373;BME280;44177;43.356;27.672;2023-04-30T06:51:58;97844.69;;;17.50;34.79
58373;BME280;44177;43.356;27.672;2023-04-30T06:54:24;97829.63;;;17.65;33.45
58373;BME280;44177;43.356;27.672;2023-04-30T06:56:51;97842.53;;;17.83;33.70
58373;BME280;44177;43.356;27.672;2023-04-30T06:59:16;97832.22;;;18.02;34.49
58373;BME280;44177;43.356;27.672;2023-04-30T07:01:42;97847.53;;;18.10;33.04
58373;BME280;44177;43.356;27.672;2023-04-30T07:04:07;97842.06;;;18.52;33.86
58373;BME280;44177;43.356;27.672;2023-04-30T07:06:33;97833.63;;;18.66;34.53
58373;BME280;44177;43.356;27.672;2023-04-30T07:08:58;97828.63;;;18.54;32.07
58373;BME280;44177;43.356;27.672;2023-04-30T07:11:24;97839.16;;;18.66;32.92
58373;BME280;44177;43.356;27.672;2023-04-30T07:13:49;97845.91;;;19.03;32.21
58373;BME280;44177;43.356;27.672;2023-04-30T07:16:15;97834.03;;;18.65;30.96
58373;BME280;44177;43.356;27.672;2023-04-30T07:18:41;97843.09;;;19.07;32.09
58373;BME280;44177;43.356;27.672;2023-04-30T07:21:07;97841.72;;;19.22;31.94
58373;BME280;44177;43.356;27.672;2023-04-30T07:23:33;97843.84;;;19.11;32.17
58373;BME280;44177;43.356;27.672;2023-04-30T07:25:59;97846.81;;;19.28;32.89
58373;BME280;44177;43.356;27.672;2023-04-30T07:28:24;97825.13;;;19.53;32.60
58373;BME280;44177;43.356;27.672;2023-04-30T07:30:50;97845.78;;;20.07;31.88
58373;BME280;44177;43.356;27.672;2023-04-30T07:33:16;97843.94;;;19.97;32.09
58373;BME280;44177;43.356;27.672;2023-04-30T07:35:42;97846.19;;;20.29;31.28
58373;BME280;44177;43.356;27.672;2023-04-30T07:38:07;97849.16;;;20.66;31.79
58373;BME280;44177;43.356;27.672;2023-04-30T07:40:32;97850.09;;;20.08;30.34
58373;BME280;44177;43.356;27.672;2023-04-30T07:42:58;97851.22;;;20.62;31.02
58373;BME280;44177;43.356;27.672;2023-04-30T07:45:23;97845.16;;;20.91;30.03
58373;BME280;44177;43.356;27.672;2023-04-30T07:47:49;97833.38;;;20.87;29.34
58373;BME280;44177;43.356;27.672;2023-04-30T07:50:14;97849.84;;;20.74;30.39
58373;BME280;44177;43.356;27.672;2023-04-30T07:52:41;97844.13;;;21.25;30.64
58373;BME280;44177;43.356;27.672;2023-04-30T07:55:07;97846.38;;;21.50;29.22
58373;BME280;44177;43.356;27.672;2023-04-30T07:57:32;97847.06;;;21.74;29.36
58373;BME280;44177;43.356;27.672;2023-04-30T07:59:58;97843.28;;;21.85;28.17
58373;BME280;44177;43.356;27.672;2023-04-30T08:02:23;97853.28;;;22.15;30.08
58373;BME280;44177;43.356;27.672;2023-04-30T08:04:48;97849.03;;;22.27;27.93
58373;BME280;44177;43.356;27.672;2023-04-30T08:07:14;97834.00;;;21.91;28.82
58373;BME280;44177;43.356;27.672;2023-04-30T08:09:40;97842.84;;;22.03;28.75
58373;BME280;44177;43.356;27.672;2023-04-30T08:12:06;97844.00;;;22.22;27.96
58373;BME280;44177;43.356;27.672;2023-04-30T08:14:32;97839.16;;;22.26;28.01
58373;BME280;44177;43.356;27.672;2023-04-30T08:16:58;97836.75;;;22.45;28.20
58373;BME280;44177;43.356;27.672;2023-04-30T08:19:25;97835.66;;;22.38;29.05
58373;BME280;44177;43.356;27.672;2023-04-30T08:21:50;97839.25;;;22.85;27.61
58373;BME280;44177;43.356;27.672;2023-04-30T08:24:16;97830.78;;;22.76;29.46
58373;BME280;44177;43.356;27.672;2023-04-30T08:26:41;97833.66;;;23.01;28.32
58373;BME280;44177;43.356;27.672;2023-04-30T08:29:07;97833.44;;;22.96;27.79
58373;BME280;44177;43.356;27.672;2023-04-30T08:31:33;97825.63;;;23.20;28.89
58373;BME280;44177;43.356;27.672;2023-04-30T08:33:59;97825.34;;;23.14;27.83
58373;BME280;44177;43.356;27.672;2023-04-30T08:36:24;97836.19;;;23.25;27.17
58373;BME280;44177;43.356;27.672;2023-04-30T08:38:50;97824.47;;;23.60;27.09
58373;BME280;44177;43.356;27.672;2023-04-30T08:41:16;97824.38;;;23.63;28.37
58373;BME280;44177;43.356;27.672;2023-04-30T08:43:42;97819.47;;;23.80;27.86
58373;BME280;44177;43.356;27.672;2023-04-30T08:46:11;97811.03;;;23.97;28.58
58373;BME280;44177;43.356;27.672;2023-04-30T08:48:41;97814.00;;;24.16;27.65
58373;BME280;44177;43.356;27.672;2023-04-30T08:51:06;97823.16;;;24.16;27.68
58373;BME280;44177;43.356;27.672;2023-04-30T08:53:36;97822.59;;;23.95;27.26
58373;BME280;44177;43.356;27.672;2023-04-30T08:56:05;97802.97;;;24.12;27.37
58373;BME280;44177;43.356;27.672;2023-04-30T08:58:31;97802.94;;;24.38;27.54
58373;BME280;44177;43.356;27.672;2023-04-30T09:00:58;97810.72;;;24.43;26.95
58373;BME280;44177;43.356;27.672;2023-04-30T09:03:24;97818.53;;;24.48;28.34
58373;BME280;44177;43.356;27.672;2023-04-30T09:05:49;97808.63;;;24.34;27.08
58373;BME280;44177;43.356;27.672;2023-04-30T09:08:18;97794.81;;;24.31;27.32
58373;BME280;44177;43.356;27.672;2023-04-30T09:10:44;97809.25;;;24.51;27.42
58373;BME280;44177;43.356;27.672;2023-04-30T09:13:10;97806.16;;;24.84;27.19
58373;BME280;44177;43.356;27.672;2023-04-30T09:15:39;97808.94;;;24.84;26.44
58373;BME280;44177;43.356;27.672;2023-04-30T09:18:16;97800.78;;;24.90;26.94
58373;BME280;44177;43.356;27.672;2023-04-30T09:21:01;97808.97;;;25.38;26.82
58373;BME280;44177;43.356;27.672;2023-04-30T09:23:27;97804.28;;;25.03;26.77
58373;BME280;44177;43.356;27.672;2023-04-30T09:25:53;97795.16;;;24.68;25.70
58373;BME280;44177;43.356;27.672;2023-04-30T09:28:19;97795.91;;;24.81;26.08
58373;BME280;44177;43.356;27.672;2023-04-30T09:30:50;97796.34;;;24.44;27.28
58373;BME280;44177;43.356;27.672;2023-04-30T09:33:15;97795.47;;;24.35;26.51
58373;BME280;44177;43.356;27.672;2023-04-30T09:35:41;97794.34;;;24.80;25.98
58373;BME280;44177;43.356;27.672;2023-04-30T09:38:07;97797.53;;;25.14;26.76
58373;BME280;44177;43.356;27.672;2023-04-30T09:40:49;97776.69;;;24.83;26.29
58373;BME280;44177;43.356;27.672;2023-04-30T09:43:14;97784.75;;;24.81;26.36
58373;BME280;44177;43.356;27.672;2023-04-30T09:45:45;97788.88;;;25.21;25.16
58373;BME280;44177;43.356;27.672;2023-04-30T09:48:21;97787.06;;;25.27;26.47
58373;BME280;44177;43.356;27.672;2023-04-30T09:50:47;97795.91;;;25.26;25.86
58373;BME280;44177;43.356;27.672;2023-04-30T09:53:14;97784.06;;;25.75;24.78
58373;BME280;44177;43.356;27.672;2023-04-30T09:55:46;97787.25;;;25.96;24.72
58373;BME280;44177;43.356;27.672;2023-04-30T09:58:13;97773.50;;;26.11;24.75
58373;BME280;44177;43.356;27.672;2023-04-30T10:00:39;97772.00;;;25.88;24.81
58373;BME280;44177;43.356;27.672;2023-04-30T10:03:10;97780.41;;;25.97;25.13
58373;BME280;44177;43.356;27.672;2023-04-30T10:05:38;97784.53;;;26.14;24.61
58373;BME280;44177;43.356;27.672;2023-04-30T10:08:09;97767.47;;;26.22;23.76
58373;BME280;44177;43.356;27.672;2023-04-30T10:10:39;97785.78;;;26.41;23.37
58373;BME280;44177;43.356;27.672;2023-04-30T10:13:10;97778.94;;;26.14;24.58
58373;BME280;44177;43.356;27.672;2023-04-30T10:15:43;97790.81;;;25.56;23.65
58373;BME280;44177;43.356;27.672;2023-04-30T10:18:15;97792.63;;;26.22;23.78
58373;BME280;44177;43.356;27.672;2023-04-30T10:20:45;97781.63;;;26.55;23.85
58373;BME280;44177;43.356;27.672;2023-04-30T10:23:12;97774.31;;;26.48;24.41
58373;BME280;44177;43.356;27.672;2023-04-30T10:25:38;97779.91;;;26.48;24.33
58373;BME280;44177;43.356;27.672;2023-04-30T10:28:07;97773.72;;;26.54;23.27
58373;BME280;44177;43.356;27.672;2023-04-30T10:30:34;97780.75;;;25.99;23.08
58373;BME280;44177;43.356;27.672;2023-04-30T10:35:58;97784.06;;;26.16;24.31
58373;BME280;44177;43.356;27.672;2023-04-30T10:38:26;97779.28;;;26.35;23.79
58373;BME280;44177;43.356;27.672;2023-04-30T10:40:56;97772.75;;;26.66;23.89
58373;BME280;44177;43.356;27.672;2023-04-30T10:43:31;97775.56;;;26.75;22.54
58373;BME280;44177;43.356;27.672;2023-04-30T10:45:57;97775.59;;;26.94;24.78
58373;BME280;44177;43.356;27.672;2023-04-30T10:48:23;97772.16;;;26.90;22.87
58373;BME280;44177;43.356;27.672;2023-04-30T10:50:57;97774.03;;;26.84;24.38
58373;BME280;44177;43.356;27.672;2023-04-30T10:53:23;97774.94;;;26.90;24.14
58373;BME280;44177;43.356;27.672;2023-04-30T10:55:59;97769.66;;;27.01;23.65
58373;BME280;44177;43.356;27.672;2023-04-30T10:58:30;97767.13;;;27.13;23.82
58373;BME280;44177;43.356;27.672;2023-04-30T11:01:04;97769.88;;;27.40;22.95
58373;BME280;44177;43.356;27.672;2023-04-30T11:03:32;97777.66;;;27.36;22.67
58373;BME280;44177;43.356;27.672;2023-04-30T11:06:16;97765.16;;;27.65;23.47
58373;BME280;44177;43.356;27.672;2023-04-30T11:08:45;97772.22;;;27.85;23.02
58373;BME280;44177;43.356;27.672;2023-04-30T11:11:16;97767.03;;;27.93;22.08
58373;BME280;44177;43.356;27.672;2023-04-30T11:14:00;97764.34;;;27.98;22.37
58373;BME280;44177;43.356;27.672;2023-04-30T11:16:34;97746.97;;;26.43;23.08
58373;BME280;44177;43.356;27.672;2023-04-30T11:19:10;97759.53;;;26.20;23.41
58373;BME280;44177;43.356;27.672;2023-04-30T11:27:25;97765.69;;;25.96;24.71
58373;BME280;44177;43.356;27.672;2023-04-30T11:29:52;97758.94;;;26.25;24.46
58373;BME280;44177;43.356;27.672;2023-04-30T11:32:18;97752.09;;;26.45;23.49
58373;BME280;44177;43.356;27.672;2023-04-30T11:34:45;97747.13;;;26.68;24.04
58373;BME280;44177;43.356;27.672;2023-04-30T11:37:33;97751.63;;;26.74;23.36
58373;BME280;44177;43.356;27.672;2023-04-30T11:40:02;97742.28;;;27.05;23.75
58373;BME280;44177;43.356;27.672;2023-04-30T11:42:28;97751.78;;;26.71;23.33
58373;BME280;44177;43.356;27.672;2023-04-30T11:45:02;97747.47;;;26.79;23.85
58373;BME280;44177;43.356;27.672;2023-04-30T11:47:40;97742.25;;;27.24;23.21
58373;BME280;44177;43.356;27.672;2023-04-30T11:50:08;97734.06;;;26.55;22.84
58373;BME280;44177;43.356;27.672;2023-04-30T11:52:34;97739.38;;;26.81;24.13
58373;BME280;44177;43.356;27.672;2023-04-30T11:55:04;97737.56;;;27.21;23.34
58373;BME280;44177;43.356;27.672;2023-04-30T11:57:34;97734.78;;;27.11;22.61
58373;BME280;44177;43.356;27.672;2023-04-30T12:00:28;97736.53;;;27.61;22.32
58373;BME280;44177;43.356;27.672;2023-04-30T12:02:55;97721.94;;;27.57;21.55
58373;BME280;44177;43.356;27.672;2023-04-30T12:05:23;97749.34;;;27.43;22.64
58373;BME280;44177;43.356;27.672;2023-04-30T12:08:04;97742.72;;;27.99;22.82
58373;BME280;44177;43.356;27.672;2023-04-30T12:10:33;97742.56;;;27.69;22.11
58373;BME280;44177;43.356;27.672;2023-04-30T12:12:59;97737.22;;;27.80;22.46
58373;BME280;44177;43.356;27.672;2023-04-30T12:15:25;97745.81;;;28.01;23.08
58373;BME280;44177;43.356;27.672;2023-04-30T12:17:53;97739.06;;;26.79;23.08
58373;BME280;44177;43.356;27.672;2023-04-30T12:20:21;97744.47;;;27.10;22.43
58373;BME280;44177;43.356;27.672;2023-04-30T12:22:47;97743.75;;;27.43;23.04
58373;BME280;44177;43.356;27.672;2023-04-30T12:25:17;97741.38;;;27.85;22.59
58373;BME280;44177;43.356;27.672;2023-04-30T12:27:51;97740.97;;;28.01;21.85
58373;BME280;44177;43.356;27.672;2023-04-30T12:30:21;97737.81;;;27.84;21.02
58373;BME280;44177;43.356;27.672;2023-04-30T12:32:49;97736.22;;;27.07;22.57
58373;BME280;44177;43.356;27.672;2023-04-30T12:35:22;97738.56;;;26.34;22.80
58373;BME280;44177;43.356;27.672;2023-04-30T12:37:53;97730.81;;;26.94;23.49
58373;BME280;44177;43.356;27.672;2023-04-30T12:40:20;97730.41;;;27.20;23.53
58373;BME280;44177;43.356;27.672;2023-04-30T12:42:46;97733.50;;;27.31;24.08
58373;BME280;44177;43.356;27.672;2023-04-30T12:45:40;97735.72;;;25.97;23.66
58373;BME280;44177;43.356;27.672;2023-04-30T12:47:58;97725.22;;;26.66;22.97
58373;BME280;44177;43.356;27.672;2023-04-30T12:50:24;97715.13;;;26.87;23.80
58373;BME280;44177;43.356;27.672;2023-04-30T12:52:50;97729.44;;;27.41;24.58
58373;BME280;44177;43.356;27.672;2023-04-30T12:55:17;97723.66;;;26.93;23.86
58373;BME280;44177;43.356;27.672;2023-04-30T13:03:09;97728.78;;;26.39;24.48
58373;BME280;44177;43.356;27.672;2023-04-30T13:05:35;97717.13;;;26.40;24.31
58373;BME280;44177;43.356;27.672;2023-04-30T13:08:03;97713.25;;;26.75;24.70
58373;BME280;44177;43.356;27.672;2023-04-30T13:10:31;97702.78;;;27.03;23.99
58373;BME280;44177;43.356;27.672;2023-04-30T13:12:57;97703.97;;;27.21;24.71
58373;BME280;44177;43.356;27.672;2023-04-30T13:15:22;97712.09;;;27.19;24.19
58373;BME280;44177;43.356;27.672;2023-04-30T13:17:48;97707.66;;;27.36;23.71
58373;BME280;44177;43.356;27.672;2023-04-30T13:20:14;97697.84;;;26.89;23.42
58373;BME280;44177;43.356;27.672;2023-04-30T13:22:40;97694.28;;;27.40;23.19
58373;BME280;44177;43.356;27.672;2023-04-30T13:25:06;97707.66;;;27.36;23.21
58373;BME280;44177;43.356;27.672;2023-04-30T13:27:31;97705.56;;;27.55;23.86
58373;BME280;44177;43.356;27.672;2023-04-30T13:29:58;97707.13;;;27.56;23.59
58373;BME280;44177;43.356;27.672;2023-04-30T13:32:23;97688.94;;;27.85;22.76